sensor_id;sensor_type;location;lat;lon;timestamp;pressure;altitude;pressure_sealevel;temperature;humidity
14295;BME280;7231;59.370;18.016;2022-11-21T00:01:17;100476.78;;;0.16;100.00
14295;BME280;7231;59.370;18.016;2022-11-21T00:03:46;100461.72;;;0.09;100.00
14295;BME280;7231;59.370;18.016;2022-11-21T00:06:14;100474.69;;;0.10;100.00
14295;BME280;7231;59.370;18.016;2022-11-21T00:08:44;100472.81;;;0.08;100.00
14295;BME280;7231;59.370;18.016;2022-11-21T00:11:12;100458.19;;;-0.07;100.00
14295;BME280;7231;59.370;18.016;2022-11-21T00:13:41;100488.78;;;0.02;100.00
14295;BME280;7231;59.370;18.016;2022-11-21T00:16:10;100479.34;;;0.03;100.00
14295;BME280;7231;59.370;18.016;2022-11-21T00:18:38;100477.50;;;0.00;100.00
14295;BME280;7231;59.370;18.016;2022-11-21T00:21:10;100480.94;;;0.00;100.00
14295;BME280;7231;59.370;18.016;2022-11-21T00:23:38;100476.63;;;-0.01;100.00
14295;BME280;7231;59.370;18.016;2022-11-21T00:26:09;100478.47;;;0.02;100.00
14295;BME280;7231;59.370;18.016;2022-11-21T00:28:37;100483.47;;;-0.01;100.00
14295;BME280;7231;59.370;18.016;2022-11-21T00:31:05;100447.78;;;-0.21;100.00
14295;BME280;7231;59.370;18.016;2022-11-21T00:33:34;100500.41;;;-0.05;100.00
14295;BME280;7231;59.370;18.016;2022-11-21T00:36:05;100497.03;;;-0.04;100.00
14295;BME280;7231;59.370;18.016;2022-11-21T00:38:34;100499.63;;;-0.04;100.00
14295;BME280;7231;59.370;18.016;2022-11-21T00:41:03;100485.84;;;-0.17;100.00
14295;BME280;7231;59.370;18.016;2022-11-21T00:43:33;100362.03;;;-0.86;100.00
14295;BME280;7231;59.370;18.016;2022-11-21T00:46:01;100502.19;;;-0.04;100.00
14295;BME280;7231;59.370;18.016;2022-11-21T00:48:30;100497.03;;;-0.04;100.00
14295;BME280;7231;59.370;18.016;2022-11-21T00:50:59;100453.06;;;-0.33;100.00
14295;BME280;7231;59.370;18.016;2022-11-21T00:53:28;100510.81;;;-0.03;100.00
14295;BME280;7231;59.370;18.016;2022-11-21T00:55:56;100507.34;;;-0.04;100.00
14295;BME280;7231;59.370;18.016;2022-11-21T00:58:24;100499.44;;;-0.07;100.00
14295;BME280;7231;59.370;18.016;2022-11-21T01:01:01;100511.03;;;0.00;100.00
14295;BME280;7231;59.370;18.016;2022-11-21T01:03:31;100505.88;;;0.00;100.00
14295;BME280;7231;59.370;18.016;2022-11-21T01:06:00;100470.19;;;-0.20;100.00
14295;BME280;7231;59.370;18.016;2022-11-21T01:08:28;100506.72;;;0.00;100.00
14295;BME280;7231;59.370;18.016;2022-11-21T01:11:01;100499.63;;;-0.04;100.00
14295;BME280;7231;59.370;18.016;2022-11-21T01:13:29;100503.44;;;0.03;100.00
14295;BME280;7231;59.370;18.016;2022-11-21T01:16:03;100499.19;;;0.04;100.00
14295;BME280;7231;59.370;18.016;2022-11-21T01:18:31;100500.88;;;0.03;100.00
14295;BME280;7231;59.370;18.016;2022-11-21T01:21:00;100502.06;;;0.08;100.00
14295;BME280;7231;59.370;18.016;2022-11-21T01:23:28;100489.16;;;0.08;100.00
14295;BME280;7231;59.370;18.016;2022-11-21T01:26:00;100502.25;;;0.11;100.00
14295;BME280;7231;59.370;18.016;2022-11-21T01:28:28;100495.31;;;0.10;100.00
14295;BME280;7231;59.370;18.016;2022-11-21T01:31:03;100490.75;;;0.06;100.00
14295;BME280;7231;59.370;18.016;2022-11-21T01:33:32;100519.41;;;0.11;100.00
14295;BME280;7231;59.370;18.016;2022-11-21T01:36:08;100509.00;;;0.09;100.00
14295;BME280;7231;59.370;18.016;2022-11-21T01:38:36;100503.75;;;0.08;100.00
14295;BME280;7231;59.370;18.016;2022-11-21T01:41:04;100517.44;;;0.07;100.00
14295;BME280;7231;59.370;18.016;2022-11-21T01:43:32;100515.66;;;0.06;100.00
14295;BME280;7231;59.370;18.016;2022-11-21T01:46:08;100512.97;;;0.04;100.00
14295;BME280;7231;59.370;18.016;2022-11-21T01:48:41;100512.06;;;0.04;100.00
14295;BME280;7231;59.370;18.016;2022-11-21T01:51:15;100517.13;;;0.02;100.00
14295;BME280;7231;59.370;18.016;2022-11-21T01:53:51;100522.19;;;0.00;100.00
14295;BME280;7231;59.370;18.016;2022-11-21T01:56:20;100518.66;;;-0.02;100.00
14295;BME280;7231;59.370;18.016;2022-11-21T01:58:52;100506.16;;;-0.09;100.00
14295;BME280;7231;59.370;18.016;2022-11-21T02:01:23;100525.28;;;-0.05;100.00
14295;BME280;7231;59.370;18.016;2022-11-21T02:03:53;100527.88;;;-0.05;100.00
14295;BME280;7231;59.370;18.016;2022-11-21T02:06:24;100494.75;;;-0.25;100.00
14295;BME280;7231;59.370;18.016;2022-11-21T02:08:52;100527.88;;;-0.05;100.00
14295;BME280;7231;59.370;18.016;2022-11-21T02:11:26;100530.94;;;-0.11;100.00
14295;BME280;7231;59.370;18.016;2022-11-21T02:13:58;100533.53;;;-0.11;100.00
14295;BME280;7231;59.370;18.016;2022-11-21T02:16:28;100533.31;;;-0.14;100.00
14295;BME280;7231;59.370;18.016;2022-11-21T02:18:56;100538.66;;;-0.11;100.00
14295;BME280;7231;59.370;18.016;2022-11-21T02:21:32;100535.50;;;-0.20;100.00
14295;BME280;7231;59.370;18.016;2022-11-21T02:24:07;100455.09;;;-0.67;100.00
14295;BME280;7231;59.370;18.016;2022-11-21T02:26:40;100559.19;;;-0.12;100.00
14295;BME280;7231;59.370;18.016;2022-11-21T02:29:09;100554.13;;;-0.11;100.00
14295;BME280;7231;59.370;18.016;2022-11-21T02:31:36;100557.59;;;-0.10;100.00
14295;BME280;7231;59.370;18.016;2022-11-21T02:34:04;100557.81;;;-0.07;100.00
14295;BME280;7231;59.370;18.016;2022-11-21T02:36:38;100552.44;;;-0.10;100.00
14295;BME280;7231;59.370;18.016;2022-11-21T02:39:10;100571.69;;;-0.05;100.00
14295;BME280;7231;59.370;18.016;2022-11-21T02:41:47;100545.50;;;-0.11;100.00
14295;BME280;7231;59.370;18.016;2022-11-21T02:44:22;100550.75;;;-0.10;100.00
14295;BME280;7231;59.370;18.016;2022-11-21T02:46:51;100554.34;;;-0.08;100.00
14295;BME280;7231;59.370;18.016;2022-11-21T02:49:26;100560.59;;;-0.04;100.00
14295;BME280;7231;59.370;18.016;2022-11-21T02:51:56;100566.22;;;-0.10;100.00
14295;BME280;7231;59.370;18.016;2022-11-21T02:54:24;100569.91;;;-0.06;100.00
14295;BME280;7231;59.370;18.016;2022-11-21T02:56:54;100549.47;;;-0.16;100.00
14295;BME280;7231;59.370;18.016;2022-11-21T02:59:23;100577.63;;;-0.06;100.00
14295;BME280;7231;59.370;18.016;2022-11-21T03:01:50;100571.69;;;-0.05;100.00
14295;BME280;7231;59.370;18.016;2022-11-21T03:04:18;100570.88;;;-0.04;100.00
14295;BME280;7231;59.370;18.016;2022-11-21T03:06:46;100536.97;;;-0.23;100.00
14295;BME280;7231;59.370;18.016;2022-11-21T03:09:14;100576.94;;;-0.04;100.00
14295;BME280;7231;59.370;18.016;2022-11-21T03:11:42;100565.03;;;-0.02;100.00
14295;BME280;7231;59.370;18.016;2022-11-21T03:14:11;100564.16;;;-0.02;100.00
14295;BME280;7231;59.370;18.016;2022-11-21T03:16:39;100563.06;;;-0.06;100.00
14295;BME280;7231;59.370;18.016;2022-11-21T03:19:07;100566.72;;;-0.02;100.00
14295;BME280;7231;59.370;18.016;2022-11-21T03:21:35;100565.03;;;-0.02;100.00
14295;BME280;7231;59.370;18.016;2022-11-21T03:24:04;100576.03;;;-0.04;100.00
14295;BME280;7231;59.370;18.016;2022-11-21T03:26:32;100577.03;;;-0.02;100.00
14295;BME280;7231;59.370;18.016;2022-11-21T03:29:00;100451.13;;;-0.75;100.00
14295;BME280;7231;59.370;18.016;2022-11-21T03:31:29;100585.56;;;-0.03;100.00
14295;BME280;7231;59.370;18.016;2022-11-21T03:33:57;100582.09;;;-0.04;100.00
14295;BME280;7231;59.370;18.016;2022-11-21T03:36:25;100572.56;;;-0.05;100.00
14295;BME280;7231;59.370;18.016;2022-11-21T03:38:53;100575.16;;;-0.05;100.00
14295;BME280;7231;59.370;18.016;2022-11-21T03:41:22;100578.63;;;-0.04;100.00
14295;BME280;7231;59.370;18.016;2022-11-21T03:44:00;100582.97;;;-0.03;100.00
14295;BME280;7231;59.370;18.016;2022-11-21T03:46:32;100574.94;;;-0.08;100.00
14295;BME280;7231;59.370;18.016;2022-11-21T03:49:01;100559.78;;;-0.16;100.00
14295;BME280;7231;59.370;18.016;2022-11-21T03:51:29;100569.41;;;-0.14;100.00
14295;BME280;7231;59.370;18.016;2022-11-21T03:53:57;100569.41;;;-0.14;100.00
14295;BME280;7231;59.370;18.016;2022-11-21T03:56:26;100588.25;;;-0.02;100.00
14295;BME280;7231;59.370;18.016;2022-11-21T03:58:54;100586.44;;;-0.03;99.89
14295;BME280;7231;59.370;18.016;2022-11-21T04:01:23;100596.75;;;-0.03;100.00
14295;BME280;7231;59.370;18.016;2022-11-21T04:03:53;100586.84;;;-0.10;99.73
14295;BME280;7231;59.370;18.016;2022-11-21T04:06:21;100592.00;;;-0.10;99.56
14295;BME280;7231;59.370;18.016;2022-11-21T04:08:49;100605.19;;;-0.05;99.89
14295;BME280;7231;59.370;18.016;2022-11-21T04:11:17;100603.59;;;-0.03;99.14
14295;BME280;7231;59.370;18.016;2022-11-21T04:13:48;100601.91;;;-0.03;99.58
14295;BME280;7231;59.370;18.016;2022-11-21T04:16:17;100594.09;;;-0.04;98.79
14295;BME280;7231;59.370;18.016;2022-11-21T04:18:45;100599.34;;;-0.03;98.65
14295;BME280;7231;59.370;18.016;2022-11-21T04:21:15;100605.50;;;-0.01;99.06
14295;BME280;7231;59.370;18.016;2022-11-21T04:23:43;100602.09;;;0.00;98.69
14295;BME280;7231;59.370;18.016;2022-11-21T04:26:11;100606.44;;;0.02;98.23
14295;BME280;7231;59.370;18.016;2022-11-21T04:28:38;100608.22;;;0.03;98.32
14295;BME280;7231;59.370;18.016;2022-11-21T04:31:07;100616.84;;;0.03;98.17
14295;BME280;7231;59.370;18.016;2022-11-21T04:33:37;100612.59;;;0.04;98.10
14295;BME280;7231;59.370;18.016;2022-11-21T04:36:05;100606.66;;;0.05;97.86
14295;BME280;7231;59.370;18.016;2022-11-21T04:38:35;100605.75;;;0.04;98.31
14295;BME280;7231;59.370;18.016;2022-11-21T04:41:03;100598.03;;;0.04;97.70
14295;BME280;7231;59.370;18.016;2022-11-21T04:43:31;100598.81;;;0.03;97.74
14295;BME280;7231;59.370;18.016;2022-11-21T04:45:59;100596.25;;;0.03;97.96
14295;BME280;7231;59.370;18.016;2022-11-21T04:48:27;100602.19;;;0.02;97.90
14295;BME280;7231;59.370;18.016;2022-11-21T04:50:55;100602.97;;;0.01;97.92
14295;BME280;7231;59.370;18.016;2022-11-21T04:53:23;100602.19;;;0.02;97.38
14295;BME280;7231;59.370;18.016;2022-11-21T04:55:52;100596.06;;;0.00;97.91
14295;BME280;7231;59.370;18.016;2022-11-21T04:58:20;100600.34;;;-0.01;97.62
14295;BME280;7231;59.370;18.016;2022-11-21T05:00:48;100604.66;;;0.00;98.00
14295;BME280;7231;59.370;18.016;2022-11-21T05:03:16;100600.41;;;0.01;98.15
14295;BME280;7231;59.370;18.016;2022-11-21T05:05:44;100603.06;;;0.03;97.70
14295;BME280;7231;59.370;18.016;2022-11-21T05:08:12;100605.66;;;0.03;98.03
14295;BME280;7231;59.370;18.016;2022-11-21T05:10:42;100605.66;;;0.03;97.94
14295;BME280;7231;59.370;18.016;2022-11-21T05:13:29;100570.56;;;-0.22;97.82
14295;BME280;7231;59.370;18.016;2022-11-21T05:15:57;100617.94;;;0.07;97.91
14295;BME280;7231;59.370;18.016;2022-11-21T05:18:25;100613.78;;;0.09;98.20
14295;BME280;7231;59.370;18.016;2022-11-21T05:20:53;100587.44;;;-0.01;98.42
14295;BME280;7231;59.370;18.016;2022-11-21T05:23:21;100605.47;;;0.13;98.19
14295;BME280;7231;59.370;18.016;2022-11-21T05:25:48;100603.38;;;0.07;98.69
14295;BME280;7231;59.370;18.016;2022-11-21T05:28:16;100606.34;;;0.13;98.53
14295;BME280;7231;59.370;18.016;2022-11-21T05:30:46;100614.19;;;0.15;98.58
14295;BME280;7231;59.370;18.016;2022-11-21T05:33:13;100561.47;;;-0.17;98.72
14295;BME280;7231;59.370;18.016;2022-11-21T05:35:41;100618.56;;;0.16;98.82
14295;BME280;7231;59.370;18.016;2022-11-21T05:38:10;100610.91;;;0.17;98.86
14295;BME280;7231;59.370;18.016;2022-11-21T05:40:38;100579.78;;;0.01;99.02
14295;BME280;7231;59.370;18.016;2022-11-21T05:43:06;100598.31;;;0.09;98.71
14295;BME280;7231;59.370;18.016;2022-11-21T05:45:52;100608.25;;;0.16;98.94
14295;BME280;7231;59.370;18.016;2022-11-21T05:48:20;100606.97;;;0.22;99.16
14295;BME280;7231;59.370;18.016;2022-11-21T05:50:48;100621.63;;;0.23;98.90
14295;BME280;7231;59.370;18.016;2022-11-21T05:53:16;100616.56;;;0.25;99.40
14295;BME280;7231;59.370;18.016;2022-11-21T05:55:44;100618.38;;;0.26;99.50
14295;BME280;7231;59.370;18.016;2022-11-21T05:58:13;100622.81;;;0.28;99.16
14295;BME280;7231;59.370;18.016;2022-11-21T06:00:41;100617.66;;;0.28;98.97
14295;BME280;7231;59.370;18.016;2022-11-21T06:03:11;100609.44;;;0.21;99.30
14295;BME280;7231;59.370;18.016;2022-11-21T06:06:01;100625.59;;;0.31;99.36
14295;BME280;7231;59.370;18.016;2022-11-21T06:08:31;100627.38;;;0.32;99.35
14295;BME280;7231;59.370;18.016;2022-11-21T06:10:59;100584.25;;;0.04;99.62
14295;BME280;7231;59.370;18.016;2022-11-21T06:13:27;100631.75;;;0.33;99.86
14295;BME280;7231;59.370;18.016;2022-11-21T06:15:59;100637.00;;;0.35;99.51
14295;BME280;7231;59.370;18.016;2022-11-21T06:18:30;100635.31;;;0.36;99.33
14295;BME280;7231;59.370;18.016;2022-11-21T06:21:02;100634.63;;;0.38;99.89
14295;BME280;7231;59.370;18.016;2022-11-21T06:23:31;100628.38;;;0.35;100.00
14295;BME280;7231;59.370;18.016;2022-11-21T06:26:01;100633.03;;;0.40;100.00
14295;BME280;7231;59.370;18.016;2022-11-21T06:28:30;100633.84;;;0.39;99.79
14295;BME280;7231;59.370;18.016;2022-11-21T06:31:01;100611.63;;;0.28;100.00
14295;BME280;7231;59.370;18.016;2022-11-21T06:33:31;100622.81;;;0.28;100.00
14295;BME280;7231;59.370;18.016;2022-11-21T06:36:01;100632.34;;;0.43;100.00
14295;BME280;7231;59.370;18.016;2022-11-21T06:38:28;100638.41;;;0.43;100.00
14295;BME280;7231;59.370;18.016;2022-11-21T06:40:56;100636.63;;;0.42;100.00
14295;BME280;7231;59.370;18.016;2022-11-21T06:43:26;100642.56;;;0.41;100.00
14295;BME280;7231;59.370;18.016;2022-11-21T06:45:54;100640.00;;;0.41;100.00
14295;BME280;7231;59.370;18.016;2022-11-21T06:48:22;100646.03;;;0.42;100.00
14295;BME280;7231;59.370;18.016;2022-11-21T06:50:51;100649.50;;;0.42;100.00
14295;BME280;7231;59.370;18.016;2022-11-21T06:53:19;100646.84;;;0.41;100.00
14295;BME280;7231;59.370;18.016;2022-11-21T06:55:47;100649.50;;;0.42;100.00
14295;BME280;7231;59.370;18.016;2022-11-21T06:58:15;100639.09;;;0.41;100.00
14295;BME280;7231;59.370;18.016;2022-11-21T07:00:43;100645.94;;;0.40;100.00
14295;BME280;7231;59.370;18.016;2022-11-21T07:03:11;100637.13;;;0.37;100.00
14295;BME280;7231;59.370;18.016;2022-11-21T07:05:39;100644.75;;;0.35;100.00
14295;BME280;7231;59.370;18.016;2022-11-21T07:08:08;100642.97;;;0.34;100.00
14295;BME280;7231;59.370;18.016;2022-11-21T07:10:39;100630.56;;;0.28;100.00
14295;BME280;7231;59.370;18.016;2022-11-21T07:13:27;100638.50;;;0.31;100.00
14295;BME280;7231;59.370;18.016;2022-11-21T07:16:00;100649.59;;;0.30;100.00
14295;BME280;7231;59.370;18.016;2022-11-21T07:18:28;100645.34;;;0.31;100.00
14295;BME280;7231;59.370;18.016;2022-11-21T07:20:57;100644.44;;;0.30;100.00
14295;BME280;7231;59.370;18.016;2022-11-21T07:23:27;100645.25;;;0.29;100.00
14295;BME280;7231;59.370;18.016;2022-11-21T07:25:58;100613.91;;;0.10;100.00
14295;BME280;7231;59.370;18.016;2022-11-21T07:28:26;100653.97;;;0.31;100.00
14295;BME280;7231;59.370;18.016;2022-11-21T07:30:55;100641.66;;;0.27;100.00
14295;BME280;7231;59.370;18.016;2022-11-21T07:33:23;100641.88;;;0.30;100.00
14295;BME280;7231;59.370;18.016;2022-11-21T07:35:51;100659.72;;;0.41;100.00
14295;BME280;7231;59.370;18.016;2022-11-21T07:38:18;100660.72;;;0.43;100.00
14295;BME280;7231;59.370;18.016;2022-11-21T07:40:48;100667.06;;;0.48;100.00
14295;BME280;7231;59.370;18.016;2022-11-21T07:43:16;100667.28;;;0.51;100.00
14295;BME280;7231;59.370;18.016;2022-11-21T07:45:44;100676.91;;;0.53;100.00
14295;BME280;7231;59.370;18.016;2022-11-21T07:48:12;100670.25;;;0.57;100.00
14295;BME280;7231;59.370;18.016;2022-11-21T07:50:40;100669.44;;;0.58;100.00
14295;BME280;7231;59.370;18.016;2022-11-21T07:53:10;100679.97;;;0.61;100.00
14295;BME280;7231;59.370;18.016;2022-11-21T07:55:38;100682.75;;;0.64;100.00
14295;BME280;7231;59.370;18.016;2022-11-21T07:58:09;100692.28;;;0.65;100.00
14295;BME280;7231;59.370;18.016;2022-11-21T08:00:39;100671.53;;;0.50;100.00
14295;BME280;7231;59.370;18.016;2022-11-21T08:03:09;100691.47;;;0.66;100.00
14295;BME280;7231;59.370;18.016;2022-11-21T08:05:39;100703.28;;;0.62;100.00
14295;BME280;7231;59.370;18.016;2022-11-21T08:08:08;100695.25;;;0.58;100.00
14295;BME280;7231;59.370;18.016;2022-11-21T08:10:37;100698.44;;;0.54;100.00
14295;BME280;7231;59.370;18.016;2022-11-21T08:13:05;100700.00;;;0.52;100.00
14295;BME280;7231;59.370;18.016;2022-11-21T08:15:34;100709.25;;;0.48;100.00
14295;BME280;7231;59.370;18.016;2022-11-21T08:18:06;100692.47;;;0.42;100.00
14295;BME280;7231;59.370;18.016;2022-11-21T08:20:35;100703.97;;;0.47;100.00
14295;BME280;7231;59.370;18.016;2022-11-21T08:23:03;100693.16;;;0.39;100.00
14295;BME280;7231;59.370;18.016;2022-11-21T08:25:32;100709.13;;;0.47;100.00
14295;BME280;7231;59.370;18.016;2022-11-21T08:28:00;100707.44;;;0.47;100.00
14295;BME280;7231;59.370;18.016;2022-11-21T08:30:29;100708.25;;;0.46;100.00
14295;BME280;7231;59.370;18.016;2022-11-21T08:32:59;100702.19;;;0.46;100.00
14295;BME280;7231;59.370;18.016;2022-11-21T08:35:27;100709.25;;;0.48;100.00
14295;BME280;7231;59.370;18.016;2022-11-21T08:37:56;100712.91;;;0.52;100.00
14295;BME280;7231;59.370;18.016;2022-11-21T08:40:25;100716.47;;;0.54;100.00
14295;BME280;7231;59.370;18.016;2022-11-21T08:42:56;100708.75;;;0.54;100.00
14295;BME280;7231;59.370;18.016;2022-11-21T08:45:24;100716.59;;;0.55;100.00
14295;BME280;7231;59.370;18.016;2022-11-21T08:47:52;100699.41;;;0.43;100.00
14295;BME280;7231;59.370;18.016;2022-11-21T08:50:22;100710.22;;;0.50;100.00
14295;BME280;7231;59.370;18.016;2022-11-21T08:52:50;100706.56;;;0.47;100.00
14295;BME280;7231;59.370;18.016;2022-11-21T08:55:18;100708.84;;;0.42;100.00
14295;BME280;7231;59.370;18.016;2022-11-21T08:57:48;100705.75;;;0.35;100.00
14295;BME280;7231;59.370;18.016;2022-11-21T09:00:16;100720.72;;;0.40;100.00
14295;BME280;7231;59.370;18.016;2022-11-21T09:02:44;100712.69;;;0.36;100.00
14295;BME280;7231;59.370;18.016;2022-11-21T09:05:12;100715.47;;;0.39;100.00
14295;BME280;7231;59.370;18.016;2022-11-21T09:07:42;100712.09;;;0.40;100.00
14295;BME280;7231;59.370;18.016;2022-11-21T09:10:10;100718.25;;;0.42;100.00
14295;BME280;7231;59.370;18.016;2022-11-21T09:12:38;100715.78;;;0.43;100.00
14295;BME280;7231;59.370;18.016;2022-11-21T09:15:08;100713.19;;;0.43;100.00
14295;BME280;7231;59.370;18.016;2022-11-21T09:17:53;100708.16;;;0.45;100.00
14295;BME280;7231;59.370;18.016;2022-11-21T09:20:37;100708.25;;;0.46;100.00
14295;BME280;7231;59.370;18.016;2022-11-21T09:23:08;100705.16;;;0.52;100.00
14295;BME280;7231;59.370;18.016;2022-11-21T09:25:37;100697.84;;;0.58;100.00
14295;BME280;7231;59.370;18.016;2022-11-21T09:28:06;100704.19;;;0.63;100.00
14295;BME280;7231;59.370;18.016;2022-11-21T09:30:35;100649.22;;;0.38;100.00
14295;BME280;7231;59.370;18.016;2022-11-21T09:33:05;100704.59;;;0.69;100.00
14295;BME280;7231;59.370;18.016;2022-11-21T09:35:33;100703.88;;;0.72;100.00
14295;BME280;7231;59.370;18.016;2022-11-21T09:38:01;100709.25;;;0.75;100.00
14295;BME280;7231;59.370;18.016;2022-11-21T09:40:33;100704.19;;;0.76;100.00
14295;BME280;7231;59.370;18.016;2022-11-21T09:43:19;100697.44;;;0.78;100.00
14295;BME280;7231;59.370;18.016;2022-11-21T09:45:58;100693.47;;;0.83;100.00
14295;BME280;7231;59.370;18.016;2022-11-21T09:48:31;100618.56;;;0.42;100.00
14295;BME280;7231;59.370;18.016;2022-11-21T09:51:04;100694.75;;;0.90;100.00
14295;BME280;7231;59.370;18.016;2022-11-21T09:53:35;100690.28;;;0.87;100.00
14295;BME280;7231;59.370;18.016;2022-11-21T09:56:10;100680.97;;;0.76;100.00
14295;BME280;7231;59.370;18.016;2022-11-21T09:58:41;100694.75;;;0.90;100.00
14295;BME280;7231;59.370;18.016;2022-11-21T10:01:11;100697.34;;;0.90;100.00
14295;BME280;7231;59.370;18.016;2022-11-21T10:03:41;100693.84;;;0.89;100.00
14295;BME280;7231;59.370;18.016;2022-11-21T10:06:16;100659.44;;;0.76;100.00
14295;BME280;7231;59.370;18.016;2022-11-21T10:08:53;100687.81;;;0.89;100.00
14295;BME280;7231;59.370;18.016;2022-11-21T10:11:33;100693.75;;;0.88;100.00
14295;BME280;7231;59.370;18.016;2022-11-21T10:14:37;100688.31;;;0.83;100.00
14295;BME280;7231;59.370;18.016;2022-11-21T10:17:17;100688.31;;;0.83;100.00
14295;BME280;7231;59.370;18.016;2022-11-21T10:20:02;100687.50;;;0.84;100.00
14295;BME280;7231;59.370;18.016;2022-11-21T10:22:45;100679.75;;;0.84;100.00
14295;BME280;7231;59.370;18.016;2022-11-21T10:25:21;100685.72;;;0.83;100.00
14295;BME280;7231;59.370;18.016;2022-11-21T10:27:57;100675.41;;;0.83;100.00
14295;BME280;7231;59.370;18.016;2022-11-21T10:30:28;100663.59;;;0.74;100.00
14295;BME280;7231;59.370;18.016;2022-11-21T10:33:00;100667.47;;;0.80;100.00
14295;BME280;7231;59.370;18.016;2022-11-21T10:35:37;100672.44;;;0.77;100.00
14295;BME280;7231;59.370;18.016;2022-11-21T10:38:16;100674.00;;;0.75;100.00
14295;BME280;7231;59.370;18.016;2022-11-21T10:40:49;100652.78;;;0.66;100.00
14295;BME280;7231;59.370;18.016;2022-11-21T10:43:25;100671.25;;;0.72;100.00
14295;BME280;7231;59.370;18.016;2022-11-21T10:46:15;100662.50;;;0.70;100.00
14295;BME280;7231;59.370;18.016;2022-11-21T10:48:47;100655.84;;;0.60;100.00
14295;BME280;7231;59.370;18.016;2022-11-21T10:51:32;100667.16;;;0.62;100.00
14295;BME280;7231;59.370;18.016;2022-11-21T10:54:03;100660.22;;;0.61;100.00
14295;BME280;7231;59.370;18.016;2022-11-21T10:56:51;100656.75;;;0.48;100.00
14295;BME280;7231;59.370;18.016;2022-11-21T10:59:24;100669.84;;;0.51;100.00
14295;BME280;7231;59.370;18.016;2022-11-21T11:01:58;100628.56;;;0.24;100.00
14295;BME280;7231;59.370;18.016;2022-11-21T11:04:28;100670.53;;;0.48;100.00
14295;BME280;7231;59.370;18.016;2022-11-21T11:07:21;100670.75;;;0.51;100.00
14295;BME280;7231;59.370;18.016;2022-11-21T11:09:49;100670.84;;;0.53;100.00
14295;BME280;7231;59.370;18.016;2022-11-21T11:12:22;100671.75;;;0.53;100.00
14295;BME280;7231;59.370;18.016;2022-11-21T11:15:19;100667.56;;;0.55;100.00
14295;BME280;7231;59.370;18.016;2022-11-21T11:17:53;100658.63;;;0.50;100.00
14295;BME280;7231;59.370;18.016;2022-11-21T11:20:31;100666.28;;;0.49;100.00
14295;BME280;7231;59.370;18.016;2022-11-21T11:22:59;100664.00;;;0.40;100.00
14295;BME280;7231;59.370;18.016;2022-11-21T11:25:33;100667.56;;;0.42;100.00
14295;BME280;7231;59.370;18.016;2022-11-21T11:28:05;100660.63;;;0.41;100.00
14295;BME280;7231;59.370;18.016;2022-11-21T11:30:36;100653.69;;;0.40;100.00
14295;BME280;7231;59.370;18.016;2022-11-21T11:33:27;100645.25;;;0.29;100.00
14295;BME280;7231;59.370;18.016;2022-11-21T11:36:00;100647.44;;;0.37;100.00
14295;BME280;7231;59.370;18.016;2022-11-21T11:38:33;100652.59;;;0.37;100.00
14295;BME280;7231;59.370;18.016;2022-11-21T11:41:07;100611.31;;;0.10;100.00
14295;BME280;7231;59.370;18.016;2022-11-21T11:43:46;100656.56;;;0.31;100.00
14295;BME280;7231;59.370;18.016;2022-11-21T11:46:43;100647.13;;;0.32;100.00
14295;BME280;7231;59.370;18.016;2022-11-21T11:49:37;100642.97;;;0.34;100.00
14295;BME280;7231;59.370;18.016;2022-11-21T11:52:24;100644.84;;;0.37;100.00
14295;BME280;7231;59.370;18.016;2022-11-21T11:54:57;100645.03;;;0.40;100.00
14295;BME280;7231;59.370;18.016;2022-11-21T11:57:29;100646.25;;;0.45;100.00
14295;BME280;7231;59.370;18.016;2022-11-21T12:00:05;100649.13;;;0.49;100.00
14295;BME280;7231;59.370;18.016;2022-11-21T12:02:44;100632.75;;;0.49;100.00
14295;BME280;7231;59.370;18.016;2022-11-21T12:05:16;100636.81;;;0.58;100.00
14295;BME280;7231;59.370;18.016;2022-11-21T12:07:50;100637.19;;;0.64;100.00
14295;BME280;7231;59.370;18.016;2022-11-21T12:10:47;100632.34;;;0.69;100.00
14295;BME280;7231;59.370;18.016;2022-11-21T12:13:34;100626.66;;;0.75;100.00
14295;BME280;7231;59.370;18.016;2022-11-21T12:16:07;100610.59;;;0.65;100.00
14295;BME280;7231;59.370;18.016;2022-11-21T12:18:47;100634.91;;;0.82;100.00
14295;BME280;7231;59.370;18.016;2022-11-21T12:21:18;100630.81;;;0.86;100.00
14295;BME280;7231;59.370;18.016;2022-11-21T12:23:48;100624.97;;;0.88;100.00
14295;BME280;7231;59.370;18.016;2022-11-21T12:26:26;100620.88;;;0.92;100.00
14295;BME280;7231;59.370;18.016;2022-11-21T12:29:06;100624.47;;;0.94;100.00
14295;BME280;7231;59.370;18.016;2022-11-21T12:31:49;100621.78;;;0.92;100.00
14295;BME280;7231;59.370;18.016;2022-11-21T12:34:33;100622.75;;;0.94;100.00
14295;BME280;7231;59.370;18.016;2022-11-21T12:37:09;100625.44;;;0.96;100.00
14295;BME280;7231;59.370;18.016;2022-11-21T12:39:59;100608.06;;;0.93;100.00
14295;BME280;7231;59.370;18.016;2022-11-21T12:42:39;100604.41;;;0.90;100.00
14295;BME280;7231;59.370;18.016;2022-11-21T12:45:25;100608.88;;;0.92;100.00
14295;BME280;7231;59.370;18.016;2022-11-21T12:48:08;100616.91;;;0.97;100.00
14295;BME280;7231;59.370;18.016;2022-11-21T12:51:09;100613.22;;;0.93;100.00
14295;BME280;7231;59.370;18.016;2022-11-21T12:54:04;100614.53;;;0.87;100.00
14295;BME280;7231;59.370;18.016;2022-11-21T12:56:58;100606.91;;;0.75;100.00
14295;BME280;7231;59.370;18.016;2022-11-21T12:59:30;100607.13;;;0.78;100.00
14295;BME280;7231;59.370;18.016;2022-11-21T13:02:10;100572.31;;;0.58;100.00
14295;BME280;7231;59.370;18.016;2022-11-21T13:04:46;100602.75;;;0.77;100.00
14295;BME280;7231;59.370;18.016;2022-11-21T13:07:19;100606.41;;;0.81;100.00
14295;BME280;7231;59.370;18.016;2022-11-21T13:09:51;100590.66;;;0.76;100.00
14295;BME280;7231;59.370;18.016;2022-11-21T13:12:26;100591.53;;;0.77;100.00
14295;BME280;7231;59.370;18.016;2022-11-21T13:15:03;100594.81;;;0.74;100.00